sensor_id;sensor_type;location;lat;lon;timestamp;pressure;altitude;pressure_sealevel;temperature
22322;BMP180;11328;53.928;18.522;2022-12-18T00:01:37;101519.00;;;-3.80
22322;BMP180;11328;53.928;18.522;2022-12-18T00:04:15;101531.00;;;-3.80
22322;BMP180;11328;53.928;18.522;2022-12-18T00:06:45;101530.00;;;-3.80
22322;BMP180;11328;53.928;18.522;2022-12-18T00:09:14;101539.00;;;-3.70
22322;BMP180;11328;53.928;18.522;2022-12-18T00:11:41;101527.00;;;-3.70
22322;BMP180;11328;53.928;18.522;2022-12-18T00:14:11;101524.00;;;-3.70
22322;BMP180;11328;53.928;18.522;2022-12-18T00:16:39;101535.00;;;-3.80
22322;BMP180;11328;53.928;18.522;2022-12-18T00:19:10;101502.00;;;-3.80
22322;BMP180;11328;53.928;18.522;2022-12-18T00:21:41;101539.00;;;-3.80
22322;BMP180;11328;53.928;18.522;2022-12-18T00:24:10;101535.00;;;-3.70
22322;BMP180;11328;53.928;18.522;2022-12-18T00:26:39;101547.00;;;-3.70
22322;BMP180;11328;53.928;18.522;2022-12-18T00:29:12;101547.00;;;-3.80
22322;BMP180;11328;53.928;18.522;2022-12-18T00:31:42;101545.00;;;-3.90
22322;BMP180;11328;53.928;18.522;2022-12-18T00:34:13;101543.00;;;-4.10
22322;BMP180;11328;53.928;18.522;2022-12-18T00:36:40;101547.00;;;-4.10
22322;BMP180;11328;53.928;18.522;2022-12-18T00:39:09;101547.00;;;-4.20
22322;BMP180;11328;53.928;18.522;2022-12-18T00:41:37;101545.00;;;-4.20
22322;BMP180;11328;53.928;18.522;2022-12-18T00:44:22;101552.00;;;-4.30
22322;BMP180;11328;53.928;18.522;2022-12-18T00:46:49;101544.00;;;-4.40
22322;BMP180;11328;53.928;18.522;2022-12-18T00:49:19;101550.00;;;-4.50
22322;BMP180;11328;53.928;18.522;2022-12-18T00:51:47;101558.00;;;-4.40
22322;BMP180;11328;53.928;18.522;2022-12-18T00:54:16;101523.00;;;-4.40
22322;BMP180;11328;53.928;18.522;2022-12-18T00:56:43;101541.00;;;-4.40
22322;BMP180;11328;53.928;18.522;2022-12-18T00:59:17;101567.00;;;-4.40
22322;BMP180;11328;53.928;18.522;2022-12-18T01:01:45;101565.00;;;-4.40
22322;BMP180;11328;53.928;18.522;2022-12-18T01:04:13;101573.00;;;-4.40
22322;BMP180;11328;53.928;18.522;2022-12-18T01:06:40;101576.00;;;-4.40
22322;BMP180;11328;53.928;18.522;2022-12-18T01:09:07;101566.00;;;-4.50
22322;BMP180;11328;53.928;18.522;2022-12-18T01:11:34;101572.00;;;-4.50
22322;BMP180;11328;53.928;18.522;2022-12-18T01:14:02;101576.00;;;-4.50
22322;BMP180;11328;53.928;18.522;2022-12-18T01:16:29;101581.00;;;-4.60
22322;BMP180;11328;53.928;18.522;2022-12-18T01:18:56;101580.00;;;-4.60
22322;BMP180;11328;53.928;18.522;2022-12-18T01:21:23;101578.00;;;-4.60
22322;BMP180;11328;53.928;18.522;2022-12-18T01:23:56;101587.00;;;-4.60
22322;BMP180;11328;53.928;18.522;2022-12-18T01:26:25;101596.00;;;-4.50
22322;BMP180;11328;53.928;18.522;2022-12-18T01:28:55;101590.00;;;-4.50
22322;BMP180;11328;53.928;18.522;2022-12-18T01:31:27;101594.00;;;-4.50
22322;BMP180;11328;53.928;18.522;2022-12-18T01:33:55;101557.00;;;-4.50
22322;BMP180;11328;53.928;18.522;2022-12-18T01:36:32;101587.00;;;-4.50
22322;BMP180;11328;53.928;18.522;2022-12-18T01:39:02;101599.00;;;-4.40
22322;BMP180;11328;53.928;18.522;2022-12-18T01:41:32;101595.00;;;-4.30
22322;BMP180;11328;53.928;18.522;2022-12-18T01:47:46;101592.00;;;-4.30
22322;BMP180;11328;53.928;18.522;2022-12-18T01:53:04;101598.00;;;-4.40
22322;BMP180;11328;53.928;18.522;2022-12-18T01:55:40;101597.00;;;-4.50
22322;BMP180;11328;53.928;18.522;2022-12-18T01:58:09;101607.00;;;-4.60
22322;BMP180;11328;53.928;18.522;2022-12-18T02:00:36;101603.00;;;-4.50
22322;BMP180;11328;53.928;18.522;2022-12-18T02:03:03;101598.00;;;-4.60
22322;BMP180;11328;53.928;18.522;2022-12-18T02:06:06;101597.00;;;-4.70
22322;BMP180;11328;53.928;18.522;2022-12-18T02:20:18;101640.00;;;-4.20
22322;BMP180;11328;53.928;18.522;2022-12-18T02:29:12;101625.00;;;-4.70
22322;BMP180;11328;53.928;18.522;2022-12-18T02:31:50;101633.00;;;-4.70
22322;BMP180;11328;53.928;18.522;2022-12-18T02:34:22;101635.00;;;-4.70
22322;BMP180;11328;53.928;18.522;2022-12-18T02:36:53;101620.00;;;-4.80
22322;BMP180;11328;53.928;18.522;2022-12-18T02:39:23;101624.00;;;-4.80
22322;BMP180;11328;53.928;18.522;2022-12-18T02:41:52;101631.00;;;-4.80
22322;BMP180;11328;53.928;18.522;2022-12-18T02:44:19;101636.00;;;-5.00
22322;BMP180;11328;53.928;18.522;2022-12-18T02:46:50;101630.00;;;-5.20
22322;BMP180;11328;53.928;18.522;2022-12-18T02:49:40;101627.00;;;-5.10
22322;BMP180;11328;53.928;18.522;2022-12-18T03:00:52;101640.00;;;-5.40
22322;BMP180;11328;53.928;18.522;2022-12-18T03:03:36;101644.00;;;-5.30
22322;BMP180;11328;53.928;18.522;2022-12-18T03:06:33;101648.00;;;-5.40
22322;BMP180;11328;53.928;18.522;2022-12-18T03:09:18;101638.00;;;-5.40
22322;BMP180;11328;53.928;18.522;2022-12-18T03:11:55;101644.00;;;-5.40
22322;BMP180;11328;53.928;18.522;2022-12-18T03:14:44;101645.00;;;-5.40
22322;BMP180;11328;53.928;18.522;2022-12-18T03:17:17;101643.00;;;-5.50
22322;BMP180;11328;53.928;18.522;2022-12-18T03:19:49;101648.00;;;-5.40
22322;BMP180;11328;53.928;18.522;2022-12-18T03:22:19;101627.00;;;-5.50
22322;BMP180;11328;53.928;18.522;2022-12-18T03:24:48;101648.00;;;-5.50
22322;BMP180;11328;53.928;18.522;2022-12-18T03:27:20;101665.00;;;-5.40
22322;BMP180;11328;53.928;18.522;2022-12-18T03:30:06;101621.00;;;-5.50
22322;BMP180;11328;53.928;18.522;2022-12-18T03:32:58;101654.00;;;-5.60
22322;BMP180;11328;53.928;18.522;2022-12-18T03:35:33;101651.00;;;-5.60
22322;BMP180;11328;53.928;18.522;2022-12-18T03:38:01;101666.00;;;-5.50
22322;BMP180;11328;53.928;18.522;2022-12-18T03:43:29;101666.00;;;-5.50
22322;BMP180;11328;53.928;18.522;2022-12-18T03:48:48;101674.00;;;-5.40
22322;BMP180;11328;53.928;18.522;2022-12-18T03:51:39;101681.00;;;-5.50
22322;BMP180;11328;53.928;18.522;2022-12-18T03:54:09;101675.00;;;-5.40
22322;BMP180;11328;53.928;18.522;2022-12-18T03:56:45;101689.00;;;-5.40
22322;BMP180;11328;53.928;18.522;2022-12-18T03:59:16;101685.00;;;-5.40
22322;BMP180;11328;53.928;18.522;2022-12-18T04:01:49;101683.00;;;-5.50
22322;BMP180;11328;53.928;18.522;2022-12-18T04:04:19;101682.00;;;-5.50
22322;BMP180;11328;53.928;18.522;2022-12-18T04:06:49;101693.00;;;-5.50
22322;BMP180;11328;53.928;18.522;2022-12-18T04:09:18;101683.00;;;-5.50
22322;BMP180;11328;53.928;18.522;2022-12-18T04:11:47;101691.00;;;-5.50
22322;BMP180;11328;53.928;18.522;2022-12-18T04:14:14;101697.00;;;-5.60
22322;BMP180;11328;53.928;18.522;2022-12-18T04:16:44;101700.00;;;-5.50
22322;BMP180;11328;53.928;18.522;2022-12-18T04:19:11;101702.00;;;-5.60
22322;BMP180;11328;53.928;18.522;2022-12-18T04:21:38;101707.00;;;-5.60
22322;BMP180;11328;53.928;18.522;2022-12-18T04:24:05;101692.00;;;-5.60
22322;BMP180;11328;53.928;18.522;2022-12-18T04:26:32;101699.00;;;-5.60
22322;BMP180;11328;53.928;18.522;2022-12-18T04:28:59;101699.00;;;-5.60
22322;BMP180;11328;53.928;18.522;2022-12-18T04:31:27;101702.00;;;-5.60
22322;BMP180;11328;53.928;18.522;2022-12-18T04:33:54;101703.00;;;-5.50
22322;BMP180;11328;53.928;18.522;2022-12-18T04:36:21;101711.00;;;-5.50
22322;BMP180;11328;53.928;18.522;2022-12-18T04:38:48;101707.00;;;-5.50
22322;BMP180;11328;53.928;18.522;2022-12-18T04:41:15;101707.00;;;-5.60
22322;BMP180;11328;53.928;18.522;2022-12-18T04:43:42;101712.00;;;-5.60
22322;BMP180;11328;53.928;18.522;2022-12-18T04:46:09;101693.00;;;-5.60
22322;BMP180;11328;53.928;18.522;2022-12-18T04:48:37;101711.00;;;-5.60
22322;BMP180;11328;53.928;18.522;2022-12-18T04:51:05;101715.00;;;-5.50
22322;BMP180;11328;53.928;18.522;2022-12-18T04:53:33;101714.00;;;-5.50
22322;BMP180;11328;53.928;18.522;2022-12-18T04:56:09;101717.00;;;-5.50
22322;BMP180;11328;53.928;18.522;2022-12-18T04:58:38;101728.00;;;-5.50
22322;BMP180;11328;53.928;18.522;2022-12-18T05:01:07;101708.00;;;-5.50
22322;BMP180;11328;53.928;18.522;2022-12-18T05:03:35;101729.00;;;-5.50
22322;BMP180;11328;53.928;18.522;2022-12-18T05:06:04;101723.00;;;-5.40
22322;BMP180;11328;53.928;18.522;2022-12-18T05:08:32;101739.00;;;-5.40
22322;BMP180;11328;53.928;18.522;2022-12-18T05:11:10;101745.00;;;-5.40
22322;BMP180;11328;53.928;18.522;2022-12-18T05:13:38;101752.00;;;-5.40
22322;BMP180;11328;53.928;18.522;2022-12-18T05:16:06;101748.00;;;-5.40
22322;BMP180;11328;53.928;18.522;2022-12-18T05:18:34;101751.00;;;-5.40
22322;BMP180;11328;53.928;18.522;2022-12-18T05:21:01;101754.00;;;-5.40
22322;BMP180;11328;53.928;18.522;2022-12-18T05:23:29;101741.00;;;-5.40
22322;BMP180;11328;53.928;18.522;2022-12-18T05:26:02;101757.00;;;-5.30
22322;BMP180;11328;53.928;18.522;2022-12-18T05:28:32;101751.00;;;-5.40
22322;BMP180;11328;53.928;18.522;2022-12-18T05:31:02;101764.00;;;-5.30
22322;BMP180;11328;53.928;18.522;2022-12-18T05:33:33;101765.00;;;-5.30
22322;BMP180;11328;53.928;18.522;2022-12-18T05:36:06;101766.00;;;-5.30
22322;BMP180;11328;53.928;18.522;2022-12-18T05:38:36;101773.00;;;-5.40
22322;BMP180;11328;53.928;18.522;2022-12-18T05:41:04;101775.00;;;-5.20
22322;BMP180;11328;53.928;18.522;2022-12-18T05:43:34;101776.00;;;-5.30
22322;BMP180;11328;53.928;18.522;2022-12-18T05:46:07;101783.00;;;-5.30
22322;BMP180;11328;53.928;18.522;2022-12-18T05:48:35;101788.00;;;-5.20
22322;BMP180;11328;53.928;18.522;2022-12-18T05:51:11;101790.00;;;-5.30
22322;BMP180;11328;53.928;18.522;2022-12-18T05:53:39;101794.00;;;-5.20
22322;BMP180;11328;53.928;18.522;2022-12-18T05:56:14;101809.00;;;-5.30
22322;BMP180;11328;53.928;18.522;2022-12-18T05:58:44;101768.00;;;-5.30
22322;BMP180;11328;53.928;18.522;2022-12-18T06:01:18;101805.00;;;-5.30
22322;BMP180;11328;53.928;18.522;2022-12-18T06:03:46;101800.00;;;-5.30
22322;BMP180;11328;53.928;18.522;2022-12-18T06:06:32;101800.00;;;-5.30
22322;BMP180;11328;53.928;18.522;2022-12-18T06:08:59;101807.00;;;-5.30
22322;BMP180;11328;53.928;18.522;2022-12-18T06:11:28;101811.00;;;-5.30
22322;BMP180;11328;53.928;18.522;2022-12-18T06:13:56;101820.00;;;-5.30
22322;BMP180;11328;53.928;18.522;2022-12-18T06:16:26;101801.00;;;-5.30
22322;BMP180;11328;53.928;18.522;2022-12-18T06:19:00;101818.00;;;-5.40
22322;BMP180;11328;53.928;18.522;2022-12-18T06:21:29;101832.00;;;-5.40
22322;BMP180;11328;53.928;18.522;2022-12-18T06:23:58;101830.00;;;-5.40
22322;BMP180;11328;53.928;18.522;2022-12-18T06:26:25;101836.00;;;-5.40
22322;BMP180;11328;53.928;18.522;2022-12-18T06:28:54;101821.00;;;-5.40
22322;BMP180;11328;53.928;18.522;2022-12-18T06:31:21;101833.00;;;-5.50
22322;BMP180;11328;53.928;18.522;2022-12-18T06:33:48;101806.00;;;-5.50
22322;BMP180;11328;53.928;18.522;2022-12-18T06:36:16;101823.00;;;-5.50
22322;BMP180;11328;53.928;18.522;2022-12-18T06:38:43;101840.00;;;-5.50
22322;BMP180;11328;53.928;18.522;2022-12-18T06:41:14;101837.00;;;-5.70
22322;BMP180;11328;53.928;18.522;2022-12-18T06:43:42;101844.00;;;-5.60
22322;BMP180;11328;53.928;18.522;2022-12-18T06:46:10;101847.00;;;-5.70
22322;BMP180;11328;53.928;18.522;2022-12-18T06:48:37;101851.00;;;-5.70
22322;BMP180;11328;53.928;18.522;2022-12-18T06:51:05;101850.00;;;-5.70
22322;BMP180;11328;53.928;18.522;2022-12-18T06:53:32;101859.00;;;-5.70
22322;BMP180;11328;53.928;18.522;2022-12-18T06:56:02;101856.00;;;-5.60
22322;BMP180;11328;53.928;18.522;2022-12-18T06:58:35;101858.00;;;-5.60
22322;BMP180;11328;53.928;18.522;2022-12-18T07:01:06;101870.00;;;-5.60
22322;BMP180;11328;53.928;18.522;2022-12-18T07:03:33;101861.00;;;-5.70
22322;BMP180;11328;53.928;18.522;2022-12-18T07:06:00;101874.00;;;-5.60
22322;BMP180;11328;53.928;18.522;2022-12-18T07:08:29;101879.00;;;-5.60
22322;BMP180;11328;53.928;18.522;2022-12-18T07:10:57;101880.00;;;-5.60
22322;BMP180;11328;53.928;18.522;2022-12-18T07:13:24;101887.00;;;-5.60
22322;BMP180;11328;53.928;18.522;2022-12-18T07:15:51;101892.00;;;-5.60
22322;BMP180;11328;53.928;18.522;2022-12-18T07:18:18;101898.00;;;-5.70
22322;BMP180;11328;53.928;18.522;2022-12-18T07:20:45;101887.00;;;-5.70
22322;BMP180;11328;53.928;18.522;2022-12-18T07:23:13;101897.00;;;-5.60
22322;BMP180;11328;53.928;18.522;2022-12-18T07:25:40;101898.00;;;-5.70
22322;BMP180;11328;53.928;18.522;2022-12-18T07:28:08;101901.00;;;-5.60
22322;BMP180;11328;53.928;18.522;2022-12-18T07:30:42;101899.00;;;-5.60
22322;BMP180;11328;53.928;18.522;2022-12-18T07:33:09;101903.00;;;-5.60
22322;BMP180;11328;53.928;18.522;2022-12-18T07:35:36;101902.00;;;-5.60
22322;BMP180;11328;53.928;18.522;2022-12-18T07:38:03;101910.00;;;-5.60
22322;BMP180;11328;53.928;18.522;2022-12-18T07:40:30;101913.00;;;-5.50
22322;BMP180;11328;53.928;18.522;2022-12-18T07:42:57;101913.00;;;-5.50
22322;BMP180;11328;53.928;18.522;2022-12-18T07:45:24;101904.00;;;-5.50
22322;BMP180;11328;53.928;18.522;2022-12-18T07:47:51;101899.00;;;-5.50
22322;BMP180;11328;53.928;18.522;2022-12-18T07:50:18;101911.00;;;-5.50
22322;BMP180;11328;53.928;18.522;2022-12-18T07:52:45;101916.00;;;-5.40
22322;BMP180;11328;53.928;18.522;2022-12-18T07:55:13;101925.00;;;-5.40
22322;BMP180;11328;53.928;18.522;2022-12-18T07:57:40;101889.00;;;-5.40
22322;BMP180;11328;53.928;18.522;2022-12-18T08:00:17;101938.00;;;-5.40
22322;BMP180;11328;53.928;18.522;2022-12-18T08:02:44;101938.00;;;-5.40
22322;BMP180;11328;53.928;18.522;2022-12-18T08:05:12;101932.00;;;-5.40
22322;BMP180;11328;53.928;18.522;2022-12-18T08:07:40;101933.00;;;-5.30
22322;BMP180;11328;53.928;18.522;2022-12-18T08:10:07;101936.00;;;-5.20
22322;BMP180;11328;53.928;18.522;2022-12-18T08:12:34;101921.00;;;-5.20
22322;BMP180;11328;53.928;18.522;2022-12-18T08:15:01;101928.00;;;-5.10
22322;BMP180;11328;53.928;18.522;2022-12-18T08:17:29;101925.00;;;-5.10
22322;BMP180;11328;53.928;18.522;2022-12-18T08:19:56;101938.00;;;-5.10
22322;BMP180;11328;53.928;18.522;2022-12-18T08:22:23;101951.00;;;-5.20
22322;BMP180;11328;53.928;18.522;2022-12-18T08:24:50;101957.00;;;-5.10
22322;BMP180;11328;53.928;18.522;2022-12-18T08:27:17;101938.00;;;-5.10
22322;BMP180;11328;53.928;18.522;2022-12-18T08:29:56;101968.00;;;-5.10
22322;BMP180;11328;53.928;18.522;2022-12-18T08:32:25;101974.00;;;-5.00
22322;BMP180;11328;53.928;18.522;2022-12-18T08:34:53;101976.00;;;-5.00
22322;BMP180;11328;53.928;18.522;2022-12-18T08:37:20;101972.00;;;-5.00
22322;BMP180;11328;53.928;18.522;2022-12-18T08:39:47;101979.00;;;-4.90
22322;BMP180;11328;53.928;18.522;2022-12-18T08:42:14;101985.00;;;-4.90
22322;BMP180;11328;53.928;18.522;2022-12-18T08:45:03;101978.00;;;-4.80
22322;BMP180;11328;53.928;18.522;2022-12-18T08:47:30;101973.00;;;-4.80
22322;BMP180;11328;53.928;18.522;2022-12-18T09:01:43;101978.00;;;-4.30
22322;BMP180;11328;53.928;18.522;2022-12-18T09:04:10;101968.00;;;-4.40
22322;BMP180;11328;53.928;18.522;2022-12-18T09:06:37;101963.00;;;-4.50
22322;BMP180;11328;53.928;18.522;2022-12-18T09:09:05;101974.00;;;-4.40
22322;BMP180;11328;53.928;18.522;2022-12-18T09:11:33;101969.00;;;-4.50
22322;BMP180;11328;53.928;18.522;2022-12-18T09:14:01;101964.00;;;-4.40
22322;BMP180;11328;53.928;18.522;2022-12-18T09:16:29;101970.00;;;-4.30
22322;BMP180;11328;53.928;18.522;2022-12-18T09:18:59;101956.00;;;-4.20
22322;BMP180;11328;53.928;18.522;2022-12-18T09:21:33;101962.00;;;-4.20
22322;BMP180;11328;53.928;18.522;2022-12-18T09:24:04;101966.00;;;-4.10
22322;BMP180;11328;53.928;18.522;2022-12-18T09:26:34;101968.00;;;-4.10
22322;BMP180;11328;53.928;18.522;2022-12-18T09:29:03;101976.00;;;-4.00
22322;BMP180;11328;53.928;18.522;2022-12-18T09:31:30;101974.00;;;-3.90
22322;BMP180;11328;53.928;18.522;2022-12-18T09:33:57;101974.00;;;-4.00
22322;BMP180;11328;53.928;18.522;2022-12-18T09:36:25;101979.00;;;-3.90
22322;BMP180;11328;53.928;18.522;2022-12-18T09:38:52;101973.00;;;-3.80
22322;BMP180;11328;53.928;18.522;2022-12-18T09:44:28;101995.00;;;-3.70
22322;BMP180;11328;53.928;18.522;2022-12-18T09:47:13;102003.00;;;-3.50
22322;BMP180;11328;53.928;18.522;2022-12-18T09:49:50;101976.00;;;-3.50
22322;BMP180;11328;53.928;18.522;2022-12-18T09:52:37;102000.00;;;-3.40
22322;BMP180;11328;53.928;18.522;2022-12-18T09:55:33;102006.00;;;-3.30
22322;BMP180;11328;53.928;18.522;2022-12-18T09:58:30;101994.00;;;-3.20
22322;BMP180;11328;53.928;18.522;2022-12-18T10:00:58;101998.00;;;-3.10
22322;BMP180;11328;53.928;18.522;2022-12-18T10:03:26;101997.00;;;-2.90
22322;BMP180;11328;53.928;18.522;2022-12-18T10:06:39;102003.00;;;-2.80
22322;BMP180;11328;53.928;18.522;2022-12-18T10:09:29;102000.00;;;-2.80
22322;BMP180;11328;53.928;18.522;2022-12-18T10:15:16;101992.00;;;-2.70
22322;BMP180;11328;53.928;18.522;2022-12-18T10:20:52;102011.00;;;-2.60
22322;BMP180;11328;53.928;18.522;2022-12-18T10:26:25;102010.00;;;-2.50
22322;BMP180;11328;53.928;18.522;2022-12-18T10:28:54;102011.00;;;-2.50
22322;BMP180;11328;53.928;18.522;2022-12-18T10:31:31;101918.00;;;-2.40
22322;BMP180;11328;53.928;18.522;2022-12-18T10:33:59;102012.00;;;-2.40
22322;BMP180;11328;53.928;18.522;2022-12-18T10:36:26;102011.00;;;-2.30
22322;BMP180;11328;53.928;18.522;2022-12-18T10:38:53;102006.00;;;-2.30
22322;BMP180;11328;53.928;18.522;2022-12-18T10:41:23;102018.00;;;-2.30
22322;BMP180;11328;53.928;18.522;2022-12-18T10:44:12;102024.00;;;-2.40
22322;BMP180;11328;53.928;18.522;2022-12-18T10:46:40;102037.00;;;-2.20
22322;BMP180;11328;53.928;18.522;2022-12-18T10:49:29;102031.00;;;-2.30
22322;BMP180;11328;53.928;18.522;2022-12-18T10:52:21;102030.00;;;-2.30
22322;BMP180;11328;53.928;18.522;2022-12-18T10:55:03;102039.00;;;-2.30
22322;BMP180;11328;53.928;18.522;2022-12-18T10:57:38;102031.00;;;-2.20
22322;BMP180;11328;53.928;18.522;2022-12-18T11:00:26;102033.00;;;-2.20
22322;BMP180;11328;53.928;18.522;2022-12-18T11:02:57;102028.00;;;-2.00
22322;BMP180;11328;53.928;18.522;2022-12-18T11:05:34;102022.00;;;-1.90
22322;BMP180;11328;53.928;18.522;2022-12-18T11:08:03;102030.00;;;-1.90
22322;BMP180;11328;53.928;18.522;2022-12-18T11:10:34;102025.00;;;-1.90
22322;BMP180;11328;53.928;18.522;2022-12-18T11:13:23;102029.00;;;-1.80
22322;BMP180;11328;53.928;18.522;2022-12-18T11:15:52;102025.00;;;-1.90
22322;BMP180;11328;53.928;18.522;2022-12-18T11:18:34;102040.00;;;-1.80
22322;BMP180;11328;53.928;18.522;2022-12-18T11:21:09;102050.00;;;-1.70
22322;BMP180;11328;53.928;18.522;2022-12-18T11:23:51;102044.00;;;-1.70
22322;BMP180;11328;53.928;18.522;2022-12-18T11:26:19;102051.00;;;-1.60
22322;BMP180;11328;53.928;18.522;2022-12-18T11:29:09;102041.00;;;-1.60
22322;BMP180;11328;53.928;18.522;2022-12-18T11:31:36;102039.00;;;-1.60
22322;BMP180;11328;53.928;18.522;2022-12-18T11:34:28;102010.00;;;-1.40
22322;BMP180;11328;53.928;18.522;2022-12-18T11:37:00;102043.00;;;-1.40
22322;BMP180;11328;53.928;18.522;2022-12-18T11:48:23;102037.00;;;-1.40
22322;BMP180;11328;53.928;18.522;2022-12-18T11:50:57;102030.00;;;-1.50
22322;BMP180;11328;53.928;18.522;2022-12-18T11:53:26;102044.00;;;-1.40
22322;BMP180;11328;53.928;18.522;2022-12-18T11:56:11;102048.00;;;-1.40
22322;BMP180;11328;53.928;18.522;2022-12-18T11:59:15;102055.00;;;-1.30
22322;BMP180;11328;53.928;18.522;2022-12-18T12:01:51;102066.00;;;-1.20
22322;BMP180;11328;53.928;18.522;2022-12-18T12:13:43;102082.00;;;-1.40
22322;BMP180;11328;53.928;18.522;2022-12-18T12:19:05;102089.00;;;-1.30
22322;BMP180;11328;53.928;18.522;2022-12-18T12:21:40;102087.00;;;-1.20
22322;BMP180;11328;53.928;18.522;2022-12-18T12:30:20;102090.00;;;-1.20
22322;BMP180;11328;53.928;18.522;2022-12-18T12:33:31;102093.00;;;-1.10
22322;BMP180;11328;53.928;18.522;2022-12-18T12:38:42;102068.00;;;-1.00
22322;BMP180;11328;53.928;18.522;2022-12-18T12:41:23;102068.00;;;-1.00
22322;BMP180;11328;53.928;18.522;2022-12-18T12:44:20;102082.00;;;-1.00
22322;BMP180;11328;53.928;18.522;2022-12-18T12:46:52;102092.00;;;-1.10
22322;BMP180;11328;53.928;18.522;2022-12-18T12:49:26;102079.00;;;-1.10
22322;BMP180;11328;53.928;18.522;2022-12-18T12:52:20;102080.00;;;-1.10
22322;BMP180;11328;53.928;18.522;2022-12-18T12:54:51;102078.00;;;-1.20
22322;BMP180;11328;53.928;18.522;2022-12-18T12:57:35;102072.00;;;-1.30
22322;BMP180;11328;53.928;18.522;2022-12-18T13:00:16;102086.00;;;-1.20
22322;BMP180;11328;53.928;18.522;2022-12-18T13:07:01;102092.00;;;-1.10
22322;BMP180;11328;53.928;18.522;2022-12-18T13:09:04;102087.00;;;-1.20
22322;BMP180;11328;53.928;18.522;2022-12-18T13:11:34;102104.00;;;-1.10
22322;BMP180;11328;53.928;18.522;2022-12-18T13:14:39;102106.00;;;-1.20
22322;BMP180;11328;53.928;18.522;2022-12-18T13:19:51;102091.00;;;-1.30
22322;BMP180;11328;53.928;18.522;2022-12-18T13:22:37;102114.00;;;-1.20
22322;BMP180;11328;53.928;18.522;2022-12-18T13:25:29;102116.00;;;-1.20
22322;BMP180;11328;53.928;18.522;2022-12-18T13:38:36;102111.00;;;-1.10
22322;BMP180;11328;53.928;18.522;2022-12-18T13:41:25;102097.00;;;-1.20
22322;BMP180;11328;53.928;18.522;2022-12-18T13:43:57;102096.00;;;-1.20
22322;BMP180;11328;53.928;18.522;2022-12-18T13:46:49;102093.00;;;-1.30
22322;BMP180;11328;53.928;18.522;2022-12-18T13:49:23;102083.00;;;-1.40
22322;BMP180;11328;53.928;18.522;2022-12-18T13:51:55;102095.00;;;-1.40
22322;BMP180;11328;53.928;18.522;2022-12-18T13:54:42;102082.00;;;-1.40
22322;BMP180;11328;53.928;18.522;2022-12-18T13:57:31;102097.00;;;-1.50
22322;BMP180;11328;53.928;18.522;2022-12-18T14:02:45;102101.00;;;-1.50
22322;BMP180;11328;53.928;18.522;2022-12-18T14:05:35;102081.00;;;-1.70
22322;BMP180;11328;53.928;18.522;2022-12-18T14:08:11;102110.00;;;-1.70
22322;BMP180;11328;53.928;18.522;2022-12-18T14:10:47;102112.00;;;-1.80
22322;BMP180;11328;53.928;18.522;2022-12-18T14:13:27;102111.00;;;-1.80
22322;BMP180;11328;53.928;18.522;2022-12-18T14:16:00;102108.00;;;-1.90
22322;BMP180;11328;53.928;18.522;2022-12-18T14:18:54;102115.00;;;-2.00
22322;BMP180;11328;53.928;18.522;2022-12-18T14:21:33;102111.00;;;-2.00
22322;BMP180;11328;53.928;18.522;2022-12-18T14:24:18;102116.00;;;-1.90
22322;BMP180;11328;53.928;18.522;2022-12-18T14:26:48;102126.00;;;-1.90
22322;BMP180;11328;53.928;18.522;2022-12-18T14:29:30;102130.00;;;-2.00
22322;BMP180;11328;53.928;18.522;2022-12-18T14:32:24;102096.00;;;-1.90
22322;BMP180;11328;53.928;18.522;2022-12-18T14:34:52;102117.00;;;-2.00
22322;BMP180;11328;53.928;18.522;2022-12-18T14:37:27;102121.00;;;-2.10
22322;BMP180;11328;53.928;18.522;2022-12-18T14:52:58;102093.00;;;-1.40
22322;BMP180;11328;53.928;18.522;2022-12-18T14:55:25;102094.00;;;-1.70
22322;BMP180;11328;53.928;18.522;2022-12-18T14:57:55;102095.00;;;-1.90
22322;BMP180;11328;53.928;18.522;2022-12-18T15:00:25;102108.00;;;-2.20
22322;BMP180;11328;53.928;18.522;2022-12-18T15:02:55;102102.00;;;-2.30
22322;BMP180;11328;53.928;18.522;2022-12-18T15:05:29;102105.00;;;-2.30
22322;BMP180;11328;53.928;18.522;2022-12-18T15:08:00;102106.00;;;-2.40
22322;BMP180;11328;53.928;18.522;2022-12-18T15:10:32;102104.00;;;-2.50
22322;BMP180;11328;53.928;18.522;2022-12-18T15:20:53;102097.00;;;-2.80
22322;BMP180;11328;53.928;18.522;2022-12-18T15:23:35;102095.00;;;-2.90
22322;BMP180;11328;53.928;18.522;2022-12-18T15:26:07;102104.00;;;-3.10
22322;BMP180;11328;53.928;18.522;2022-12-18T15:28:55;102119.00;;;-3.00
22322;BMP180;11328;53.928;18.522;2022-12-18T15:31:33;102125.00;;;-3.10
22322;BMP180;11328;53.928;18.522;2022-12-18T15:34:22;102127.00;;;-3.20
22322;BMP180;11328;53.928;18.522;2022-12-18T15:36:51;102113.00;;;-3.10
22322;BMP180;11328;53.928;18.522;2022-12-18T15:39:18;102126.00;;;-3.10
22322;BMP180;11328;53.928;18.522;2022-12-18T15:41:45;102090.00;;;-3.20
22322;BMP180;11328;53.928;18.522;2022-12-18T15:44:31;102121.00;;;-3.30
22322;BMP180;11328;53.928;18.522;2022-12-18T15:46:58;102113.00;;;-3.50
22322;BMP180;11328;53.928;18.522;2022-12-18T15:49:25;102111.00;;;-3.50
22322;BMP180;11328;53.928;18.522;2022-12-18T15:51:59;102114.00;;;-3.70
22322;BMP180;11328;53.928;18.522;2022-12-18T15:54:28;102122.00;;;-3.60
22322;BMP180;11328;53.928;18.522;2022-12-18T15:57:14;102132.00;;;-3.60
22322;BMP180;11328;53.928;18.522;2022-12-18T15:59:55;102115.00;;;-3.90
22322;BMP180;11328;53.928;18.522;2022-12-18T16:02:25;102136.00;;;-3.90
22322;BMP180;11328;53.928;18.522;2022-12-18T16:04:54;102104.00;;;-4.00
22322;BMP180;11328;53.928;18.522;2022-12-18T16:07:22;102120.00;;;-4.20
22322;BMP180;11328;53.928;18.522;2022-12-18T16:09:51;102125.00;;;-4.20
22322;BMP180;11328;53.928;18.522;2022-12-18T16:12:24;102125.00;;;-4.40
22322;BMP180;11328;53.928;18.522;2022-12-18T16:14:52;102136.00;;;-4.30
22322;BMP180;11328;53.928;18.522;2022-12-18T16:17:19;102132.00;;;-4.30
22322;BMP180;11328;53.928;18.522;2022-12-18T16:19:46;102142.00;;;-4.40
22322;BMP180;11328;53.928;18.522;2022-12-18T16:22:33;102127.00;;;-4.50
22322;BMP180;11328;53.928;18.522;2022-12-18T16:25:00;102119.00;;;-4.60
22322;BMP180;11328;53.928;18.522;2022-12-18T16:27:27;102091.00;;;-4.60
22322;BMP180;11328;53.928;18.522;2022-12-18T16:29:54;102136.00;;;-4.60